Time;durP1;ratioP1;P1;durP2;ratioP2;P2;SDS_P1;SDS_P2;PMS_P1;PMS_P2;Temp;Humidity;BMP_temperature;BMP_pressure;BME280_temperature;BME280_humidity;BME280_pressure;Samples;Min_cycle;Max_cycle;Signal;HPM_P1;HPM_P2
2023/06/29 00:00:13;;;;;;;8.07;4.43;;;;;;;;;;6242204;28;20049;-77
2023/06/29 00:03:17;;;;;;;9.55;4.25;;;;;;;;;;6235522;28;20045;-78
2023/06/29 00:06:20;;;;;;;6.80;4.47;;;;;;;;;;6239347;28;20069;-78
2023/06/29 00:09:25;;;;;;;8.80;4.93;;;;;;;;;;6243499;28;20054;-78
2023/06/29 00:12:26;;;;;;;7.70;4.43;;;;;;;;;;6238799;28;20053;-77
2023/06/29 00:15:28;;;;;;;8.63;4.55;;;;;;;;;;6246333;28;20052;-78
2023/06/29 00:18:30;;;;;;;6.45;4.60;;;;;;;;;;6240346;28;20060;-76
2023/06/29 00:21:33;;;;;;;8.82;4.13;;;;;;;;;;6244101;28;20060;-78
2023/06/29 00:24:42;;;;;;;7.57;3.95;;;;;;;;;;6240893;28;20363;-78
2023/06/29 00:27:44;;;;;;;7.38;4.93;;;;;;;;;;6240998;28;20041;-78
2023/06/29 00:30:45;;;;;;;9.13;4.43;;;;;;;;;;6242832;28;20280;-78
2023/06/29 00:33:47;;;;;;;6.03;4.03;;;;;;;;;;6237613;28;20233;-78
2023/06/29 00:36:49;;;;;;;6.35;3.97;;;;;;;;;;6241571;28;20049;-78
2023/06/29 00:39:51;;;;;;;9.68;4.10;;;;;;;;;;6240793;28;20046;-78
2023/06/29 00:42:55;;;;;;;6.28;4.00;;;;;;;;;;6243812;28;20204;-77
2023/06/29 00:45:56;;;;;;;7.68;3.80;;;;;;;;;;6240684;28;20060;-78
2023/06/29 00:48:58;;;;;;;7.47;4.22;;;;;;;;;;6244307;28;20042;-78
2023/06/29 00:52:01;;;;;;;8.02;3.85;;;;;;;;;;6240925;28;20104;-79
2023/06/29 00:55:03;;;;;;;9.07;4.25;;;;;;;;;;6239578;28;20248;-78
2023/06/29 00:58:05;;;;;;;6.43;4.07;;;;;;;;;;6232198;28;20080;-78
2023/06/29 01:01:07;;;;;;;7.43;3.88;;;;;;;;;;6239578;28;20057;-78
2023/06/29 01:04:08;;;;;;;5.50;3.38;;;;;;;;;;6240762;28;20210;-79
2023/06/29 01:07:16;;;;;;;6.13;3.80;;;;;;;;;;6241968;28;20151;-78
2023/06/29 01:10:19;;;;;;;5.90;3.60;;;;;;;;;;6241417;28;20058;-79
2023/06/29 01:13:21;;;;;;;5.47;3.30;;;;;;;;;;6243509;28;20088;-78
2023/06/29 01:16:23;;;;;;;8.85;4.18;;;;;;;;;;6240321;28;20053;-78
2023/06/29 01:19:28;;;;;;;4.80;3.17;;;;;;;;;;6242424;28;20046;-78
2023/06/29 01:22:33;;;;;;;7.03;3.72;;;;;;;;;;6244802;28;20053;-78
2023/06/29 01:25:36;;;;;;;8.10;4.07;;;;;;;;;;6235446;28;20069;-78
2023/06/29 01:28:38;;;;;;;8.45;3.70;;;;;;;;;;6238001;28;20073;-78
2023/06/29 01:31:39;;;;;;;5.05;3.67;;;;;;;;;;6243675;28;20139;-78
2023/06/29 01:34:41;;;;;;;6.60;3.75;;;;;;;;;;6244212;28;20057;-78
2023/06/29 01:37:45;;;;;;;7.30;3.53;;;;;;;;;;6243064;28;20081;-78
2023/06/29 01:40:49;;;;;;;5.88;3.38;;;;;;;;;;6236429;28;20978;-78
2023/06/29 01:43:51;;;;;;;4.85;3.15;;;;;;;;;;6241611;28;20041;-78
2023/06/29 01:46:53;;;;;;;10.02;3.72;;;;;;;;;;6241689;28;20338;-78
2023/06/29 01:49:54;;;;;;;7.28;3.25;;;;;;;;;;6238799;28;20328;-78
2023/06/29 01:52:56;;;;;;;5.35;3.70;;;;;;;;;;6241201;28;20053;-78
2023/06/29 01:55:59;;;;;;;7.15;3.33;;;;;;;;;;6241529;28;20049;-78
2023/06/29 01:59:01;;;;;;;6.45;3.53;;;;;;;;;;6246677;28;20371;-78
2023/06/29 02:02:04;;;;;;;7.83;3.63;;;;;;;;;;6249037;28;20053;-78
2023/06/29 02:05:06;;;;;;;4.82;3.25;;;;;;;;;;6242811;28;20485;-78
2023/06/29 02:08:08;;;;;;;6.35;2.72;;;;;;;;;;6244697;28;20647;-78
2023/06/29 02:11:11;;;;;;;6.72;4.00;;;;;;;;;;6243952;28;20520;-78
2023/06/29 02:14:12;;;;;;;6.35;3.20;;;;;;;;;;6245423;28;20057;-78
2023/06/29 02:17:13;;;;;;;7.15;3.33;;;;;;;;;;6245928;28;20061;-78
2023/06/29 02:20:17;;;;;;;5.43;2.70;;;;;;;;;;6250405;28;20082;-78
2023/06/29 02:23:18;;;;;;;5.97;3.10;;;;;;;;;;6244672;28;20073;-78
2023/06/29 02:26:21;;;;;;;3.42;2.50;;;;;;;;;;6247121;28;20364;-78
2023/06/29 02:29:23;;;;;;;6.43;3.08;;;;;;;;;;6246690;28;20058;-77
2023/06/29 02:32:24;;;;;;;6.18;2.67;;;;;;;;;;6244169;28;20048;-78
2023/06/29 02:35:26;;;;;;;3.22;2.42;;;;;;;;;;6243173;28;20429;-78
2023/06/29 02:38:27;;;;;;;4.75;2.95;;;;;;;;;;6242209;28;20376;-78
2023/06/29 02:41:30;;;;;;;4.60;2.80;;;;;;;;;;6246855;28;20060;-78
2023/06/29 02:44:32;;;;;;;6.03;2.58;;;;;;;;;;6246063;28;20046;-78
2023/06/29 02:47:33;;;;;;;6.45;2.72;;;;;;;;;;6244027;28;20049;-78
2023/06/29 02:50:35;;;;;;;4.47;2.20;;;;;;;;;;6245696;28;20053;-78
2023/06/29 02:53:36;;;;;;;5.07;2.70;;;;;;;;;;6242790;28;20053;-78
2023/06/29 02:56:39;;;;;;;3.75;2.53;;;;;;;;;;6242072;28;20050;-79
2023/06/29 02:59:40;;;;;;;4.00;2.70;;;;;;;;;;6244658;28;20053;-78
2023/06/29 03:02:42;;;;;;;5.07;2.63;;;;;;;;;;6241491;28;20053;-78
2023/06/29 03:05:43;;;;;;;6.18;2.47;;;;;;;;;;6246074;28;20060;-78
2023/06/29 03:08:45;;;;;;;4.15;2.53;;;;;;;;;;6244215;28;20242;-78
2023/06/29 03:11:48;;;;;;;3.53;2.53;;;;;;;;;;6245873;28;20250;-78
2023/06/29 03:14:49;;;;;;;5.45;2.15;;;;;;;;;;6244812;28;20057;-78
2023/06/29 03:17:51;;;;;;;3.70;2.33;;;;;;;;;;6241767;28;20049;-78
2023/06/29 03:20:52;;;;;;;3.47;2.35;;;;;;;;;;6241293;28;20061;-78
2023/06/29 03:23:54;;;;;;;4.70;2.10;;;;;;;;;;6242293;28;20065;-79
2023/06/29 03:26:57;;;;;;;3.47;2.08;;;;;;;;;;6242470;28;20067;-78
2023/06/29 03:30:00;;;;;;;4.78;2.17;;;;;;;;;;6236295;28;20057;-78
2023/06/29 03:33:01;;;;;;;4.45;2.60;;;;;;;;;;6243949;28;20096;-77
2023/06/29 03:36:04;;;;;;;6.90;2.40;;;;;;;;;;6243927;28;20061;-78
2023/06/29 03:39:06;;;;;;;2.67;2.22;;;;;;;;;;6244310;28;20049;-78
2023/06/29 03:42:09;;;;;;;3.63;2.20;;;;;;;;;;6243087;28;20061;-78
2023/06/29 03:45:11;;;;;;;4.88;2.30;;;;;;;;;;6240450;28;20049;-79
2023/06/29 03:48:12;;;;;;;5.22;2.65;;;;;;;;;;6242869;28;20116;-78
2023/06/29 03:51:14;;;;;;;4.20;2.10;;;;;;;;;;6246683;28;20056;-78
2023/06/29 03:54:15;;;;;;;3.50;2.10;;;;;;;;;;6245783;28;20845;-78
2023/06/29 03:57:18;;;;;;;4.35;2.30;;;;;;;;;;6242412;28;20046;-79
2023/06/29 04:00:20;;;;;;;4.97;1.98;;;;;;;;;;6242648;28;20113;-78
2023/06/29 04:03:21;;;;;;;3.15;1.98;;;;;;;;;;6244888;28;20061;-79
2023/06/29 04:06:23;;;;;;;4.53;1.95;;;;;;;;;;6243127;28;20050;-78
2023/06/29 04:09:24;;;;;;;5.22;2.10;;;;;;;;;;6242586;28;20049;-78
2023/06/29 04:12:27;;;;;;;7.00;2.28;;;;;;;;;;6242407;28;20132;-78
2023/06/29 04:15:30;;;;;;;5.18;1.80;;;;;;;;;;6242725;28;20090;-78
2023/06/29 04:18:31;;;;;;;3.80;2.00;;;;;;;;;;6238419;28;20322;-78
2023/06/29 04:21:32;;;;;;;3.58;1.95;;;;;;;;;;6240332;28;20065;-79
2023/06/29 04:24:34;;;;;;;3.55;1.50;;;;;;;;;;6241186;28;20397;-78
2023/06/29 04:27:37;;;;;;;4.32;1.85;;;;;;;;;;6240684;28;20063;-78
2023/06/29 04:30:40;;;;;;;5.43;1.95;;;;;;;;;;6243847;28;20211;-78
2023/06/29 04:33:42;;;;;;;3.65;1.80;;;;;;;;;;6242896;28;20121;-79
2023/06/29 04:36:46;;;;;;;7.47;1.88;;;;;;;;;;6242532;28;20053;-78
2023/06/29 04:39:47;;;;;;;6.07;2.03;;;;;;;;;;6245855;28;20057;-78
2023/06/29 04:42:55;;;;;;;6.57;2.17;;;;;;;;;;6238542;28;20091;-78
2023/06/29 04:45:56;;;;;;;7.40;2.80;;;;;;;;;;6237869;28;20053;-78
2023/06/29 04:49:04;;;;;;;6.88;2.25;;;;;;;;;;6241402;28;20057;-78
2023/06/29 04:52:10;;;;;;;4.18;2.03;;;;;;;;;;6240587;28;20100;-78
2023/06/29 04:55:11;;;;;;;3.08;1.77;;;;;;;;;;6241147;28;20408;-78
2023/06/29 04:58:14;;;;;;;7.00;2.13;;;;;;;;;;6238417;28;20334;-78
2023/06/29 05:01:16;;;;;;;6.10;2.05;;;;;;;;;;6243462;28;20080;-78
2023/06/29 05:04:17;;;;;;;5.05;2.10;;;;;;;;;;6238048;28;20053;-75
2023/06/29 05:07:19;;;;;;;3.85;1.92;;;;;;;;;;6242824;28;20049;-76
2023/06/29 05:10:20;;;;;;;3.92;1.95;;;;;;;;;;6241742;28;20128;-75
2023/06/29 05:13:23;;;;;;;7.20;1.90;;;;;;;;;;6238346;28;20204;-76
2023/06/29 05:16:25;;;;;;;4.88;2.13;;;;;;;;;;6240228;28;20152;-75
2023/06/29 05:19:26;;;;;;;7.13;2.22;;;;;;;;;;6240331;28;20590;-75
2023/06/29 05:22:28;;;;;;;5.97;1.90;;;;;;;;;;6239945;28;20104;-76
2023/06/29 05:25:29;;;;;;;9.23;2.05;;;;;;;;;;6242243;28;20064;-76
2023/06/29 05:28:32;;;;;;;6.10;2.00;;;;;;;;;;6239100;28;20330;-74
2023/06/29 05:31:33;;;;;;;3.15;1.92;;;;;;;;;;6241961;28;20053;-75
2023/06/29 05:34:36;;;;;;;3.70;2.00;;;;;;;;;;6245348;28;20049;-74
2023/06/29 05:37:37;;;;;;;5.63;2.10;;;;;;;;;;6246928;28;20061;-74
2023/06/29 05:40:39;;;;;;;3.60;1.80;;;;;;;;;;6245294;28;20049;-75
2023/06/29 05:43:42;;;;;;;7.03;1.85;;;;;;;;;;6243907;28;20065;-75
2023/06/29 05:46:43;;;;;;;5.43;1.88;;;;;;;;;;6243894;28;20158;-76
2023/06/29 05:49:45;;;;;;;4.05;1.70;;;;;;;;;;6247469;28;20061;-74
2023/06/29 05:52:46;;;;;;;7.45;2.30;;;;;;;;;;6244516;28;20069;-75
2023/06/29 05:55:48;;;;;;;4.30;2.33;;;;;;;;;;6243060;28;20053;-75
2023/06/29 05:58:51;;;;;;;3.72;1.88;;;;;;;;;;6246739;28;20053;-75
2023/06/29 06:01:52;;;;;;;12.77;2.50;;;;;;;;;;6248975;28;20049;-74
2023/06/29 06:04:54;;;;;;;8.30;1.70;;;;;;;;;;6244131;28;20461;-74
2023/06/29 06:07:55;;;;;;;4.93;1.80;;;;;;;;;;6243330;28;20127;-75
2023/06/29 06:10:57;;;;;;;5.95;2.28;;;;;;;;;;6244522;28;20326;-74
2023/06/29 06:13:59;;;;;;;5.90;2.13;;;;;;;;;;6243963;28;20065;-73
2023/06/29 06:17:01;;;;;;;8.65;2.33;;;;;;;;;;6241944;28;20057;-74
2023/06/29 06:20:04;;;;;;;11.05;2.35;;;;;;;;;;6247206;28;20221;-74
2023/06/29 06:23:06;;;;;;;;;;;;;;;;;;6247295;28;20061;-75
2023/06/29 06:26:07;;;;;;;7.18;2.05;;;;;;;;;;6242423;28;19925;-75
2023/06/29 06:29:10;;;;;;;8.57;2.50;;;;;;;;;;6242469;28;20360;-74
2023/06/29 06:32:11;;;;;;;5.47;1.95;;;;;;;;;;6241759;28;20065;-74
2023/06/29 06:35:13;;;;;;;3.83;2.03;;;;;;;;;;6245807;28;20052;-74
2023/06/29 06:38:14;;;;;;;8.00;2.15;;;;;;;;;;6244871;28;20049;-75
2023/06/29 06:41:16;;;;;;;6.40;2.45;;;;;;;;;;6246538;28;20061;-74
2023/06/29 06:44:19;;;;;;;4.25;1.55;;;;;;;;;;6242340;28;20087;-74
2023/06/29 06:47:21;;;;;;;5.20;2.20;;;;;;;;;;6243924;28;20049;-75
2023/06/29 06:50:22;;;;;;;5.15;1.77;;;;;;;;;;6246600;28;20092;-75
2023/06/29 06:53:24;;;;;;;10.68;2.72;;;;;;;;;;6244969;28;20057;-74
2023/06/29 06:56:25;;;;;;;5.10;1.75;;;;;;;;;;6245281;28;20069;-75
2023/06/29 06:59:28;;;;;;;4.35;1.95;;;;;;;;;;6247102;28;20053;-74
2023/06/29 07:02:30;;;;;;;4.45;1.75;;;;;;;;;;6242569;28;20384;-74
2023/06/29 07:05:31;;;;;;;3.92;1.63;;;;;;;;;;6244749;28;20056;-74
2023/06/29 07:08:35;;;;;;;4.00;1.98;;;;;;;;;;6243043;28;20053;-75
2023/06/29 07:11:37;;;;;;;3.53;1.55;;;;;;;;;;6243786;28;20061;-74
2023/06/29 07:14:40;;;;;;;3.78;1.67;;;;;;;;;;6246103;28;20041;-75
2023/06/29 07:17:41;;;;;;;3.13;1.40;;;;;;;;;;6242917;28;20061;-75
2023/06/29 07:20:44;;;;;;;5.60;1.88;;;;;;;;;;6242766;28;20333;-74
2023/06/29 07:23:45;;;;;;;4.17;1.47;;;;;;;;;;6244594;28;20045;-75
2023/06/29 07:26:46;;;;;;;3.83;1.70;;;;;;;;;;6242076;28;20233;-75
2023/06/29 07:29:49;;;;;;;2.25;1.70;;;;;;;;;;6243731;28;20052;-74
2023/06/29 07:32:52;;;;;;;4.43;1.48;;;;;;;;;;6244762;28;20206;-75
2023/06/29 07:35:53;;;;;;;4.23;1.70;;;;;;;;;;6242932;28;20190;-75
2023/06/29 07:38:55;;;;;;;3.55;1.75;;;;;;;;;;6244317;28;20664;-74
2023/06/29 07:41:56;;;;;;;2.42;1.60;;;;;;;;;;6245080;28;20298;-75
2023/06/29 07:44:59;;;;;;;2.92;1.52;;;;;;;;;;6243176;28;20062;-74
2023/06/29 07:48:01;;;;;;;4.20;1.67;;;;;;;;;;6241846;28;20053;-75
2023/06/29 07:51:03;;;;;;;4.10;1.60;;;;;;;;;;6245241;28;20053;-74
2023/06/29 07:54:06;;;;;;;6.10;1.77;;;;;;;;;;6241394;28;20177;-74
2023/06/29 07:57:08;;;;;;;5.25;1.52;;;;;;;;;;6243048;28;20453;-74
2023/06/29 08:00:12;;;;;;;2.92;1.65;;;;;;;;;;6244037;28;20242;-74
2023/06/29 08:03:14;;;;;;;4.28;1.60;;;;;;;;;;6240481;28;20065;-75
2023/06/29 08:06:15;;;;;;;7.30;2.30;;;;;;;;;;6242516;28;20066;-75
2023/06/29 08:09:17;;;;;;;2.88;1.70;;;;;;;;;;6246040;28;20060;-75
2023/06/29 08:12:18;;;;;;;4.60;1.63;;;;;;;;;;6241744;28;20040;-74
2023/06/29 08:15:21;;;;;;;8.05;1.70;;;;;;;;;;6245403;28;20054;-74
2023/06/29 08:18:23;;;;;;;2.80;1.70;;;;;;;;;;6239129;28;20050;-74
2023/06/29 08:21:24;;;;;;;3.55;1.60;;;;;;;;;;6245352;28;20084;-75
2023/06/29 08:24:26;;;;;;;3.65;1.48;;;;;;;;;;6243186;28;20053;-73
2023/06/29 08:27:27;;;;;;;2.28;1.60;;;;;;;;;;6244307;28;20056;-73
2023/06/29 08:30:30;;;;;;;4.28;1.55;;;;;;;;;;6241730;28;21601;-74
2023/06/29 08:33:31;;;;;;;3.13;1.73;;;;;;;;;;6243234;28;20053;-74
2023/06/29 08:36:34;;;;;;;2.90;1.70;;;;;;;;;;6244568;28;20452;-74
2023/06/29 08:39:35;;;;;;;2.20;1.40;;;;;;;;;;6242133;28;20053;-74
2023/06/29 08:42:37;;;;;;;2.80;1.27;;;;;;;;;;6241328;28;20056;-75
2023/06/29 08:45:40;;;;;;;4.50;1.40;;;;;;;;;;6239061;28;20053;-74
2023/06/29 08:48:43;;;;;;;4.57;1.50;;;;;;;;;;6241566;28;20049;-74
2023/06/29 08:51:47;;;;;;;4.25;1.30;;;;;;;;;;6243726;28;20064;-74
2023/06/29 08:54:49;;;;;;;4.32;1.70;;;;;;;;;;6240059;28;20309;-74
2023/06/29 08:57:51;;;;;;;4.20;1.60;;;;;;;;;;6244006;28;20053;-73
2023/06/29 09:00:54;;;;;;;3.90;1.45;;;;;;;;;;6244164;28;20052;-74
2023/06/29 09:03:56;;;;;;;;;;;;;;;;;;6240016;28;20053;-75
2023/06/29 09:06:57;;;;;;;3.97;1.40;;;;;;;;;;6237275;28;19979;-74
2023/06/29 09:09:59;;;;;;;5.05;1.50;;;;;;;;;;6242092;28;20057;-74
2023/06/29 09:13:02;;;;;;;3.35;1.40;;;;;;;;;;6242882;28;20072;-73
2023/06/29 09:16:05;;;;;;;6.20;1.50;;;;;;;;;;6240324;28;20073;-74
2023/06/29 09:19:07;;;;;;;5.78;1.52;;;;;;;;;;6239161;28;20068;-74
2023/06/29 09:22:08;;;;;;;3.42;1.25;;;;;;;;;;6240836;28;20223;-74
2023/06/29 09:25:13;;;;;;;1.67;1.20;;;;;;;;;;6243326;28;20107;-73
2023/06/29 09:28:14;;;;;;;4.28;1.60;;;;;;;;;;6242701;28;20060;-74
2023/06/29 09:31:17;;;;;;;3.38;1.60;;;;;;;;;;6243370;28;20058;-75
2023/06/29 09:34:20;;;;;;;4.15;1.48;;;;;;;;;;6241377;28;20249;-73
2023/06/29 09:37:21;;;;;;;5.50;1.80;;;;;;;;;;6239437;28;20054;-74
2023/06/29 09:40:23;;;;;;;4.13;1.63;;;;;;;;;;6241649;28;20057;-75
2023/06/29 09:43:26;;;;;;;9.75;2.10;;;;;;;;;;6240666;28;20284;-73
2023/06/29 09:46:35;;;;;;;6.35;1.48;;;;;;;;;;6240527;28;20058;-73
2023/06/29 09:49:45;;;;;;;4.78;1.33;;;;;;;;;;6243449;28;20049;-73
2023/06/29 09:52:47;;;;;;;2.22;1.20;;;;;;;;;;6239015;28;20056;-74
2023/06/29 09:55:49;;;;;;;2.27;1.30;;;;;;;;;;6242287;28;20076;-74
2023/06/29 09:58:51;;;;;;;5.47;1.42;;;;;;;;;;6248179;28;20060;-74
2023/06/29 10:01:54;;;;;;;4.68;1.42;;;;;;;;;;6241487;28;20053;-73
2023/06/29 10:04:56;;;;;;;4.85;1.50;;;;;;;;;;6241782;28;20061;-74
2023/06/29 10:07:58;;;;;;;3.35;1.40;;;;;;;;;;6239568;28;20056;-77
2023/06/29 10:11:02;;;;;;;13.90;10.90;;;;;;;;;;6243254;28;20061;-78
2023/06/29 10:14:05;;;;;;;5.03;4.15;;;;;;;;;;6239009;28;20053;-78
2023/06/29 10:17:09;;;;;;;18.42;13.80;;;;;;;;;;6241871;28;21280;-78
2023/06/29 10:20:12;;;;;;;2.40;1.55;;;;;;;;;;6253061;28;20077;-75
2023/06/29 10:23:16;;;;;;;4.47;1.50;;;;;;;;;;6248712;28;20237;-76
2023/06/29 10:26:18;;;;;;;2.80;1.25;;;;;;;;;;6247499;28;20220;-77
2023/06/29 10:29:20;;;;;;;2.67;1.42;;;;;;;;;;6249756;28;20083;-76
2023/06/29 10:32:33;;;;;;;2.55;1.65;;;;;;;;;;6248967;28;20349;-76
2023/06/29 10:35:34;;;;;;;3.42;1.60;;;;;;;;;;6249374;28;20211;-75
2023/06/29 10:38:36;;;;;;;4.40;1.55;;;;;;;;;;6245711;28;20112;-76
2023/06/29 10:41:38;;;;;;;1.93;1.50;;;;;;;;;;6248385;28;20060;-75
2023/06/29 10:44:39;;;;;;;4.43;1.40;;;;;;;;;;6244386;28;20543;-76
2023/06/29 10:47:42;;;;;;;1.77;1.23;;;;;;;;;;6246914;28;20248;-76
2023/06/29 10:50:44;;;;;;;4.05;1.80;;;;;;;;;;6248156;28;20041;-76
2023/06/29 10:53:47;;;;;;;3.15;1.67;;;;;;;;;;6243233;28;20065;-75
2023/06/29 10:56:56;;;;;;;3.75;1.50;;;;;;;;;;6243318;28;21142;-75
2023/06/29 10:59:58;;;;;;;2.33;1.30;;;;;;;;;;6245003;28;20061;-74
2023/06/29 11:03:01;;;;;;;8.23;1.50;;;;;;;;;;6247048;28;20355;-75
2023/06/29 11:06:03;;;;;;;2.30;1.35;;;;;;;;;;6243832;28;20257;-77
2023/06/29 11:09:11;;;;;;;8.45;1.88;;;;;;;;;;6244170;28;20439;-77
2023/06/29 11:12:14;;;;;;;2.58;1.60;;;;;;;;;;6243666;28;20056;-78
2023/06/29 11:15:17;;;;;;;1.92;1.45;;;;;;;;;;6243848;28;20049;-78
2023/06/29 11:18:20;;;;;;;2.30;1.30;;;;;;;;;;6240895;28;20049;-77
2023/06/29 11:21:22;;;;;;;45.83;34.78;;;;;;;;;;6246210;28;20052;-76
2023/06/29 11:24:23;;;;;;;9.25;5.30;;;;;;;;;;6244537;28;20053;-78
2023/06/29 11:27:24;;;;;;;20.75;14.18;;;;;;;;;;6243717;28;20058;-76
2023/06/29 11:30:26;;;;;;;41.80;32.88;;;;;;;;;;6245103;28;20053;-77
2023/06/29 11:33:29;;;;;;;13.38;11.95;;;;;;;;;;6247456;28;20237;-76
2023/06/29 11:36:31;;;;;;;53.08;44.35;;;;;;;;;;6244090;28;20363;-77
2023/06/29 11:39:33;;;;;;;2.85;2.05;;;;;;;;;;6239816;28;20054;-77
2023/06/29 11:42:36;;;;;;;5.00;2.08;;;;;;;;;;6242668;28;20045;-78
2023/06/29 11:45:37;;;;;;;1.60;1.30;;;;;;;;;;6241269;28;20064;-78
2023/06/29 11:48:40;;;;;;;1.75;1.52;;;;;;;;;;6240962;28;20397;-78
2023/06/29 11:51:42;;;;;;;2.92;1.45;;;;;;;;;;6243316;28;20061;-78
2023/06/29 11:54:44;;;;;;;4.78;1.70;;;;;;;;;;6243061;28;20049;-81
2023/06/29 11:57:50;;;;;;;6.88;1.73;;;;;;;;;;6243619;28;20117;-79
2023/06/29 12:00:56;;;;;;;3.03;1.58;;;;;;;;;;6241177;28;20073;-79
2023/06/29 12:03:59;;;;;;;5.05;1.60;;;;;;;;;;6239607;28;20050;-80
2023/06/29 12:07:00;;;;;;;3.10;1.90;;;;;;;;;;6244900;28;20061;-79
2023/06/29 12:10:02;;;;;;;3.60;1.70;;;;;;;;;;6239118;28;20061;-79
2023/06/29 12:13:04;;;;;;;4.45;1.75;;;;;;;;;;6244590;28;20241;-79
2023/06/29 12:16:06;;;;;;;2.70;1.60;;;;;;;;;;6239221;28;20350;-79
2023/06/29 12:19:12;;;;;;;3.53;1.30;;;;;;;;;;6245485;28;20059;-80
2023/06/29 12:22:15;;;;;;;3.47;1.50;;;;;;;;;;6242017;28;20044;-79
2023/06/29 12:25:18;;;;;;;3.90;1.70;;;;;;;;;;6239663;28;20045;-80
2023/06/29 12:28:20;;;;;;;4.38;1.50;;;;;;;;;;6242445;28;20060;-79
2023/06/29 12:31:21;;;;;;;;;;;;;;;;;;6246457;28;20234;-79
2023/06/29 12:34:25;;;;;;;2.13;1.42;;;;;;;;;;6245479;28;19917;-80
2023/06/29 12:37:26;;;;;;;2.75;1.77;;;;;;;;;;6245021;28;20060;-79
2023/06/29 12:40:28;;;;;;;;;;;;;;;;;;6242980;28;20045;-79
2023/06/29 12:43:29;;;;;;;6.17;3.53;;;;;;;;;;6239222;28;19924;-79
2023/06/29 12:46:31;;;;;;;22.10;19.90;;;;;;;;;;6244760;28;20483;-78
2023/06/29 12:49:34;;;;;;;3.67;1.80;;;;;;;;;;6243223;28;20077;-78
2023/06/29 12:52:35;;;;;;;2.55;1.50;;;;;;;;;;6238825;28;20060;-77
2023/06/29 12:55:37;;;;;;;2.10;1.70;;;;;;;;;;6240860;28;20050;-78
2023/06/29 12:58:38;;;;;;;3.47;1.95;;;;;;;;;;6243040;28;20057;-79
2023/06/29 13:01:40;;;;;;;2.55;1.60;;;;;;;;;;6242678;28;20257;-78
2023/06/29 13:04:42;;;;;;;2.67;1.52;;;;;;;;;;6240513;28;20064;-78
2023/06/29 13:07:44;;;;;;;4.13;1.70;;;;;;;;;;6239423;28;20369;-78
2023/06/29 13:10:45;;;;;;;3.25;2.10;;;;;;;;;;6240264;28;20356;-78
2023/06/29 13:13:47;;;;;;;2.53;2.10;;;;;;;;;;6239689;28;20116;-78
2023/06/29 13:16:48;;;;;;;;;;;;;;;;;;6244857;28;20325;-79
2023/06/29 13:19:51;;;;;;;4.50;1.77;;;;;;;;;;6242501;28;19932;-79
2023/06/29 13:22:53;;;;;;;4.38;1.95;;;;;;;;;;6245042;28;20068;-79
2023/06/29 13:25:54;;;;;;;;;;;;;;;;;;6241974;28;20080;-78
2023/06/29 13:28:55;;;;;;;3.53;1.75;;;;;;;;;;6243803;28;20008;-78
2023/06/29 13:31:57;;;;;;;;;;;;;;;;;;6240769;28;20362;-78
2023/06/29 13:35:00;;;;;;;3.20;1.90;;;;;;;;;;6240417;28;19940;-78
2023/06/29 13:38:01;;;;;;;2.97;1.90;;;;;;;;;;6240316;28;20061;-78
2023/06/29 13:41:02;;;;;;;;;;;;;;;;;;6242489;28;20057;-78
2023/06/29 13:44:05;;;;;;;3.53;2.03;;;;;;;;;;6241035;28;19979;-78
2023/06/29 13:47:06;;;;;;;4.95;2.10;;;;;;;;;;6243956;28;20057;-78
2023/06/29 13:50:10;;;;;;;4.03;2.13;;;;;;;;;;6241402;28;20368;-78
2023/06/29 13:53:14;;;;;;;3.40;2.65;;;;;;;;;;6240953;28;20046;-78
2023/06/29 13:56:16;;;;;;;3.53;2.10;;;;;;;;;;6245499;28;20631;-78
2023/06/29 13:59:17;;;;;;;4.72;2.03;;;;;;;;;;6245638;28;20125;-78
2023/06/29 14:02:19;;;;;;;5.90;2.60;;;;;;;;;;6244522;28;20153;-78
2023/06/29 14:05:22;;;;;;;15.45;2.10;;;;;;;;;;6243135;28;20408;-78
2023/06/29 14:08:23;;;;;;;3.63;1.92;;;;;;;;;;6244390;28;20054;-78
2023/06/29 14:11:27;;;;;;;3.58;2.10;;;;;;;;;;6248027;28;20057;-78
2023/06/29 14:14:29;;;;;;;5.53;2.50;;;;;;;;;;6247418;28;20118;-78
2023/06/29 14:17:30;;;;;;;2.28;2.03;;;;;;;;;;6243840;28;20112;-78
2023/06/29 14:20:33;;;;;;;3.22;2.13;;;;;;;;;;6244722;28;20049;-78
2023/06/29 14:23:34;;;;;;;3.58;1.70;;;;;;;;;;6245962;28;20061;-78
2023/06/29 14:26:36;;;;;;;3.55;2.20;;;;;;;;;;6243242;28;20065;-77
2023/06/29 14:29:37;;;;;;;3.78;2.03;;;;;;;;;;6248162;28;20068;-77
2023/06/29 14:32:39;;;;;;;5.10;2.08;;;;;;;;;;6244621;28;20059;-77
2023/06/29 14:35:42;;;;;;;4.60;2.35;;;;;;;;;;6244323;28;20057;-78
2023/06/29 14:38:44;;;;;;;5.22;2.00;;;;;;;;;;6247887;28;20057;-77
2023/06/29 14:41:52;;;;;;;14.80;2.63;;;;;;;;;;6245689;28;20057;-78
2023/06/29 14:44:53;;;;;;;4.65;2.05;;;;;;;;;;6246125;28;20060;-78
2023/06/29 14:47:55;;;;;;;3.60;2.20;;;;;;;;;;6240314;28;20065;-77
2023/06/29 14:50:58;;;;;;;3.70;2.20;;;;;;;;;;6245658;28;20045;-77
2023/06/29 14:53:59;;;;;;;2.70;2.30;;;;;;;;;;6241197;28;20065;-77
2023/06/29 14:57:01;;;;;;;8.05;2.35;;;;;;;;;;6241500;28;20124;-74
2023/06/29 15:00:04;;;;;;;6.50;2.65;;;;;;;;;;6245651;28;20077;-77
2023/06/29 15:03:05;;;;;;;4.00;2.05;;;;;;;;;;6241545;28;20072;-78
2023/06/29 15:06:08;;;;;;;6.15;2.22;;;;;;;;;;6244344;28;20045;-77
2023/06/29 15:09:09;;;;;;;3.53;2.13;;;;;;;;;;6244156;28;20037;-78
2023/06/29 15:12:11;;;;;;;4.70;2.17;;;;;;;;;;6248186;28;20084;-78
2023/06/29 15:15:13;;;;;;;2.88;2.08;;;;;;;;;;6243259;28;20104;-78
2023/06/29 15:18:15;;;;;;;4.88;2.42;;;;;;;;;;6243602;28;20069;-78
2023/06/29 15:21:18;;;;;;;4.78;2.53;;;;;;;;;;6243137;28;20051;-78
2023/06/29 15:24:19;;;;;;;4.65;2.17;;;;;;;;;;6242066;28;20249;-77
2023/06/29 15:27:21;;;;;;;5.43;2.08;;;;;;;;;;6240760;28;20112;-78
2023/06/29 15:30:26;;;;;;;3.60;2.40;;;;;;;;;;6245588;28;20061;-77
2023/06/29 15:33:28;;;;;;;4.75;2.55;;;;;;;;;;6244469;28;20096;-78
2023/06/29 15:36:32;;;;;;;4.73;2.80;;;;;;;;;;6243448;28;20045;-77
2023/06/29 15:39:35;;;;;;;12.25;9.30;;;;;;;;;;6245348;28;20155;-76
2023/06/29 15:42:36;;;;;;;8.65;5.38;;;;;;;;;;6244823;28;20060;-77
2023/06/29 15:45:38;;;;;;;3.40;2.65;;;;;;;;;;6244925;28;20057;-77
2023/06/29 15:48:39;;;;;;;4.28;2.28;;;;;;;;;;6239877;28;20048;-78
2023/06/29 15:51:42;;;;;;;7.25;2.90;;;;;;;;;;6244058;28;20041;-76
2023/06/29 15:54:44;;;;;;;4.30;2.90;;;;;;;;;;6241372;28;20064;-77
2023/06/29 15:57:45;;;;;;;3.78;2.80;;;;;;;;;;6243700;28;20057;-77
2023/06/29 16:00:47;;;;;;;3.53;2.40;;;;;;;;;;6242795;28;20225;-77
2023/06/29 16:03:48;;;;;;;4.90;3.00;;;;;;;;;;6242442;28;20055;-77
2023/06/29 16:06:52;;;;;;;6.40;2.50;;;;;;;;;;6240500;28;20049;-76
2023/06/29 16:09:53;;;;;;;5.05;2.90;;;;;;;;;;6240549;28;20061;-77
2023/06/29 16:12:55;;;;;;;4.03;2.50;;;;;;;;;;6242332;28;20053;-76
2023/06/29 16:15:56;;;;;;;5.10;2.60;;;;;;;;;;6244489;28;20064;-76
2023/06/29 16:18:57;;;;;;;4.93;2.50;;;;;;;;;;6242700;28;20060;-77
2023/06/29 16:22:03;;;;;;;4.40;2.40;;;;;;;;;;6244746;28;20065;-77
2023/06/29 16:25:05;;;;;;;4.80;2.85;;;;;;;;;;6240835;28;22117;-76
2023/06/29 16:28:07;;;;;;;9.23;3.33;;;;;;;;;;6239915;28;20068;-77
2023/06/29 16:31:09;;;;;;;5.93;2.88;;;;;;;;;;6243733;28;20133;-76
2023/06/29 16:34:10;;;;;;;5.85;2.63;;;;;;;;;;6245797;28;20113;-76
2023/06/29 16:37:13;;;;;;;4.63;2.72;;;;;;;;;;6242102;28;20085;-76
2023/06/29 16:40:14;;;;;;;;;;;;;;;;;;6244496;28;20053;-76
2023/06/29 16:43:16;;;;;;;4.95;2.60;;;;;;;;;;6240661;28;20258;-76
2023/06/29 16:46:18;;;;;;;6.57;2.90;;;;;;;;;;6241134;28;20057;-77
2023/06/29 16:49:20;;;;;;;4.57;2.40;;;;;;;;;;6242654;28;20049;-76
2023/06/29 16:52:24;;;;;;;4.20;2.47;;;;;;;;;;6244516;28;20048;-77
2023/06/29 16:55:26;;;;;;;3.63;2.80;;;;;;;;;;6239788;28;20053;-76
2023/06/29 16:58:29;;;;;;;4.57;3.00;;;;;;;;;;6241316;28;20081;-76
2023/06/29 17:01:31;;;;;;;2.90;2.58;;;;;;;;;;6241173;28;20335;-76
2023/06/29 17:04:32;;;;;;;5.28;2.40;;;;;;;;;;6241521;28;20215;-76
2023/06/29 17:07:35;;;;;;;4.10;2.20;;;;;;;;;;6241088;28;20041;-76
2023/06/29 17:10:43;;;;;;;;;;;;;;;;;;6247193;28;20059;-77
2023/06/29 17:13:44;;;;;;;3.28;2.28;;;;;;;;;;6243143;28;19967;-76
2023/06/29 17:16:46;;;;;;;7.90;2.10;;;;;;;;;;6242413;28;20056;-77
2023/06/29 17:19:48;;;;;;;6.07;2.38;;;;;;;;;;6239795;28;20061;-76
2023/06/29 17:22:51;;;;;;;3.72;2.15;;;;;;;;;;6240855;28;20264;-77
2023/06/29 17:25:53;;;;;;;;;;;;;;;;;;6240049;28;20058;-77
2023/06/29 17:28:54;;;;;;;7.70;2.30;;;;;;;;;;6246695;28;19925;-76
2023/06/29 17:31:56;;;;;;;4.63;2.28;;;;;;;;;;6249840;28;20110;-76
2023/06/29 17:34:58;;;;;;;5.05;2.72;;;;;;;;;;6243308;28;20360;-77
2023/06/29 17:38:05;;;;;;;8.13;2.57;;;;;;;;;;6246021;28;20131;-76
2023/06/29 17:41:07;;;;;;;5.28;2.30;;;;;;;;;;6245861;28;20103;-76
2023/06/29 17:44:08;;;;;;;7.85;2.70;;;;;;;;;;6242900;28;20046;-77
2023/06/29 17:47:10;;;;;;;8.23;2.53;;;;;;;;;;6244375;28;20053;-76
2023/06/29 17:50:15;;;;;;;6.43;2.92;;;;;;;;;;6244939;28;20064;-77
2023/06/29 17:53:18;;;;;;;5.18;2.60;;;;;;;;;;6246134;28;20046;-76
2023/06/29 17:56:19;;;;;;;9.23;2.40;;;;;;;;;;6247602;28;20053;-77
2023/06/29 17:59:21;;;;;;;5.03;2.38;;;;;;;;;;6244652;28;20285;-77
2023/06/29 18:02:22;;;;;;;4.85;2.50;;;;;;;;;;6245564;28;20057;-77
2023/06/29 18:05:24;;;;;;;9.05;2.45;;;;;;;;;;6247347;28;20255;-77
2023/06/29 18:08:27;;;;;;;5.82;2.53;;;;;;;;;;6246038;28;20049;-77
2023/06/29 18:11:28;;;;;;;;;;;;;;;;;;6247591;28;20057;-77
2023/06/29 18:14:30;;;;;;;4.93;2.15;;;;;;;;;;6245410;28;19917;-77